KEDE/EDE METAR and TAF weather

Enter ICAO airport designator
Station Type Date Time Source
KEDE METAR 2022/11/30 11:15 UTC NOAA

KEDE 301115Z AUTO 14003KT 10SM BKN041 16/15 A3008 RMK AO2 T01550145


Station Type Date Time Source
KEDE Decoded METAR 2022/11/30 11:15 UTC NOAA

Edenton, Northeastern Regional Airport, NC, United States (KEDE) 36-01-40N 076-34-02W
Nov 30, 2022 - 06:15 AM EST / 2022.11.30 1115 UTC
Wind: from the SE (140 degrees) at 3 MPH (3 KT):0
Visibility: 10 mile(s):0
Sky conditions: mostly cloudy
Temperature: 59.9 F (15.5 C)
Dew Point: 58.1 F (14.5 C)
Relative Humidity: 93%
Pressure (altimeter): 30.08 in. Hg (1018 hPa)
ob: KEDE 301115Z AUTO 14003KT 10SM BKN041 16/15 A3008 RMK AO2 T01550145
cycle: 11

Station Type Date Time Source
KEDE TAF UTC NOAA

Error!

Example: see airport list